Cleveland, Utah
Current Conditions -  °F | °C
As of 8:53 PM on Wednesday 22 Oct 2014 (Local Time) from KPUC Reporting Station
Clear Clear  
Wind Chill: 54°   Ceiling: Unl
Heat Index: 54°   Visibility: 10mi
Dew Point: 27°   Wind: 0mph
Humidity: 35%   Direction: NA
Pressure: 30.2"   Gusts: NA
Location:  39.35°N, 110.85°W
Report Text: KPUC 230253Z AUTO 00000KT 10SM CLR 12/M03 A3020 RMK AO2 SLP207 T01221028 53015 TSNO
Loading
Personal Weather Stations






























Interactive Weather Map
Tropical Storm Tracking
New forecast layout! Learn more

10-Day Weather Forecast

Advertisements
Track Severe Weather on mobile